Time;durP1;ratioP1;P1;durP2;ratioP2;P2;SDS_P1;SDS_P2;PMS_P1;PMS_P2;Temp;Humidity;BMP_temperature;BMP_pressure;BME280_temperature;BME280_humidity;BME280_pressure;Samples;Min_cycle;Max_cycle;Signal;HPM_P1;HPM_P2
2022/04/26 03:36:38;;;;;;;;;;;11.80;81.80;;;;;;5071727;28;20447;-70
2022/04/26 03:39:03;;;;;;;;;;;11.70;81.50;;;;;;5086439;28;20003;-70
2022/04/26 03:41:29;;;;;;;;;;;11.70;81.70;;;;;;5078594;28;20474;-70
2022/04/26 03:43:55;;;;;;;;;;;11.80;81.70;;;;;;5075536;28;19998;-70
2022/04/26 03:46:20;;;;;;;;;;;11.80;81.90;;;;;;5078914;28;20272;-70
2022/04/26 03:48:45;;;;;;;;;;;11.70;81.90;;;;;;5081867;28;19920;-70
2022/04/26 03:51:11;;;;;;;;;;;11.70;82.00;;;;;;5076721;28;19931;-71
2022/04/26 03:53:37;;;;;;;;;;;11.70;82.00;;;;;;5084701;28;20012;-70
2022/04/26 03:56:02;;;;;;;;;;;11.70;82.00;;;;;;5072720;28;19919;-70
2022/04/26 03:58:29;;;;;;;;;;;11.70;82.00;;;;;;5075612;28;20022;-70
2022/04/26 04:00:55;;;;;;;;;;;11.70;81.60;;;;;;5084126;28;20113;-70
2022/04/26 04:03:20;;;;;;;;;;;11.70;82.10;;;;;;5074924;28;20037;-70
2022/04/26 04:05:46;;;;;;;;;;;11.70;82.10;;;;;;5081245;28;20018;-70
2022/04/26 04:08:11;;;;;;;;;;;11.70;82.20;;;;;;5074311;28;19916;-70
2022/04/26 04:10:36;;;;;;;;;;;11.60;82.10;;;;;;5088754;28;19911;-70
2022/04/26 04:13:02;;;;;;;;;;;11.70;81.80;;;;;;5074548;28;19913;-70
2022/04/26 04:15:28;;;;;;;;;;;11.70;82.00;;;;;;5082989;28;20015;-70
2022/04/26 04:17:53;;;;;;;;;;;11.60;82.10;;;;;;5080713;28;19923;-70
2022/04/26 04:20:19;;;;;;;;;;;11.60;82.20;;;;;;5085837;28;19912;-70
2022/04/26 04:22:45;;;;;;;;;;;11.60;82.10;;;;;;5075660;28;19916;-70
2022/04/26 04:25:10;;;;;;;;;;;11.60;82.30;;;;;;5076934;28;19955;-70
2022/04/26 04:27:36;;;;;;;;;;;11.60;82.40;;;;;;5084657;28;20546;-70
2022/04/26 04:30:03;;;;;;;;;;;11.60;82.10;;;;;;5074688;28;19919;-70
2022/04/26 04:32:29;;;;;;;;;;;11.60;82.30;;;;;;5078270;28;20590;-70
2022/04/26 04:34:54;;;;;;;;;;;11.60;82.10;;;;;;5078102;28;20040;-70
2022/04/26 04:37:20;;;;;;;;;;;11.60;83.00;;;;;;5076036;28;20361;-70
2022/04/26 04:39:45;;;;;;;;;;;11.50;82.30;;;;;;5077949;28;19930;-70
2022/04/26 04:42:13;;;;;;;;;;;11.50;82.20;;;;;;5081084;28;19912;-70
2022/04/26 04:44:38;;;;;;;;;;;11.50;82.20;;;;;;5076562;28;19981;-71
2022/04/26 04:47:04;;;;;;;;;;;11.50;82.20;;;;;;5077210;28;20007;-70
2022/04/26 04:49:29;;;;;;;;;;;11.50;82.30;;;;;;5075853;28;19920;-70
2022/04/26 04:51:55;;;;;;;;;;;11.50;82.30;;;;;;5079985;28;19916;-70
2022/04/26 04:54:20;;;;;;;;;;;11.50;82.40;;;;;;5083237;28;19916;-70
2022/04/26 04:56:46;;;;;;;;;;;11.50;82.30;;;;;;5080480;28;19922;-70
2022/04/26 04:59:11;;;;;;;;;;;11.40;82.10;;;;;;5077667;28;19916;-70
2022/04/26 05:01:37;;;;;;;;;;;11.40;82.00;;;;;;5084000;28;20360;-70
2022/04/26 05:04:02;;;;;;;;;;;11.40;82.20;;;;;;5079885;28;19909;-70
2022/04/26 05:06:28;;;;;;;;;;;11.50;82.50;;;;;;5077512;28;19916;-70
2022/04/26 05:08:53;;;;;;;;;;;11.40;82.30;;;;;;5077795;28;19923;-71
2022/04/26 05:11:19;;;;;;;;;;;11.40;82.20;;;;;;5079767;28;19916;-70
2022/04/26 05:13:44;;;;;;;;;;;11.40;82.30;;;;;;5078991;28;19923;-70
2022/04/26 05:16:10;;;;;;;;;;;11.40;82.10;;;;;;5076160;28;20054;-70
2022/04/26 05:18:35;;;;;;;;;;;11.40;82.10;;;;;;5082744;28;19924;-70
2022/04/26 05:21:01;;;;;;;;;;;11.40;82.00;;;;;;5077564;28;20001;-70
2022/04/26 05:26:11;;;;;;;;;;;11.40;82.10;;;;;;5077547;28;19963;-70
2022/04/26 05:28:36;;;;;;;;;;;11.40;82.10;;;;;;5085097;28;19951;-70
2022/04/26 05:31:02;;;;;;;;;;;11.40;82.10;;;;;;5074150;28;19909;-70
2022/04/26 05:33:27;;;;;;;;;;;11.40;82.20;;;;;;5086733;28;19987;-70
2022/04/26 05:35:53;;;;;;;;;;;11.40;82.10;;;;;;5081652;28;19912;-70
2022/04/26 05:38:19;;;;;;;;;;;11.30;82.30;;;;;;5083977;28;20364;-70
2022/04/26 05:40:44;;;;;;;;;;;11.30;82.00;;;;;;5080520;28;19948;-70
2022/04/26 05:43:10;;;;;;;;;;;11.30;82.20;;;;;;5081780;28;20637;-70
2022/04/26 05:45:35;;;;;;;;;;;11.30;81.80;;;;;;5084331;28;19912;-70
2022/04/26 05:48:01;;;;;;;;;;;11.30;82.00;;;;;;5084248;28;19938;-71
2022/04/26 05:50:27;;;;;;;;;;;11.30;82.00;;;;;;5084453;28;19927;-70
2022/04/26 05:52:52;;;;;;;;;;;11.30;81.90;;;;;;5077802;28;19912;-70
2022/04/26 05:55:18;;;;;;;;;;;11.30;82.00;;;;;;5088828;28;20003;-70
2022/04/26 05:57:44;;;;;;;;;;;11.30;82.10;;;;;;5076523;28;19963;-70
2022/04/26 06:00:11;;;;;;;;;;;11.30;82.10;;;;;;5077189;28;20022;-70
2022/04/26 06:02:37;;;;;;;;;;;11.30;82.00;;;;;;5080264;28;19918;-70
2022/04/26 06:05:03;;;;;;;;;;;11.30;81.90;;;;;;5074277;28;19917;-70
2022/04/26 06:07:28;;;;;;;;;;;11.30;81.90;;;;;;5081932;28;19920;-70
2022/04/26 06:09:54;;;;;;;;;;;11.30;82.10;;;;;;5085110;28;20250;-70
2022/04/26 06:12:23;;;;;;;;;;;11.30;82.20;;;;;;5089828;28;19912;-70
2022/04/26 06:14:48;;;;;;;;;;;11.20;81.90;;;;;;5079583;28;20329;-71
2022/04/26 06:17:14;;;;;;;;;;;11.30;82.00;;;;;;5082430;28;19942;-70
2022/04/26 06:19:39;;;;;;;;;;;11.30;81.90;;;;;;5086046;28;19916;-70
2022/04/26 06:22:05;;;;;;;;;;;11.30;81.90;;;;;;5084194;28;19917;-70
2022/04/26 06:24:30;;;;;;;;;;;11.30;81.90;;;;;;5081859;28;20020;-70
2022/04/26 06:26:56;;;;;;;;;;;11.30;82.00;;;;;;5083705;28;19912;-70
2022/04/26 06:29:21;;;;;;;;;;;11.30;81.90;;;;;;5084668;28;20191;-70
2022/04/26 06:31:47;;;;;;;;;;;11.30;81.90;;;;;;5077512;28;19912;-70
2022/04/26 06:34:12;;;;;;;;;;;11.30;81.90;;;;;;5074590;28;19943;-70
2022/04/26 06:36:38;;;;;;;;;;;11.30;82.00;;;;;;5086536;28;19909;-70
2022/04/26 06:39:04;;;;;;;;;;;11.30;81.90;;;;;;5078479;28;19931;-70
2022/04/26 06:41:29;;;;;;;;;;;11.30;81.90;;;;;;5073201;28;20011;-70
2022/04/26 06:43:55;;;;;;;;;;;11.30;81.90;;;;;;5076953;28;19973;-70
2022/04/26 06:46:21;;;;;;;;;;;11.30;81.90;;;;;;5090774;28;19912;-70
2022/04/26 06:48:49;;;;;;;;;;;11.30;81.80;;;;;;5083515;28;20007;-70
2022/04/26 06:51:15;;;;;;;;;;;11.30;81.90;;;;;;5085874;28;20701;-70
2022/04/26 06:53:40;;;;;;;;;;;11.30;82.00;;;;;;5084785;28;19951;-70
2022/04/26 06:56:06;;;;;;;;;;;11.30;81.90;;;;;;5084424;28;19962;-70
2022/04/26 06:58:33;;;;;;;;;;;11.20;81.90;;;;;;5080625;28;19908;-70
2022/04/26 07:01:00;;;;;;;;;;;11.30;82.20;;;;;;5080233;28;19969;-70
2022/04/26 07:03:26;;;;;;;;;;;11.30;81.90;;;;;;5082166;28;19916;-70
2022/04/26 07:05:52;;;;;;;;;;;11.30;82.00;;;;;;5083920;28;19916;-70
2022/04/26 07:08:18;;;;;;;;;;;11.30;81.90;;;;;;5081783;28;19915;-70
2022/04/26 07:10:43;;;;;;;;;;;11.30;82.60;;;;;;5084905;28;19912;-70
2022/04/26 07:13:09;;;;;;;;;;;11.30;82.00;;;;;;5077110;28;19919;-70
2022/04/26 07:15:34;;;;;;;;;;;11.30;81.80;;;;;;5074923;28;19920;-70
2022/04/26 07:18:00;;;;;;;;;;;11.30;81.70;;;;;;5078285;28;19947;-70
2022/04/26 07:20:28;;;;;;;;;;;11.30;82.00;;;;;;5080441;28;19919;-70
2022/04/26 07:22:53;;;;;;;;;;;11.40;81.90;;;;;;5077698;28;19916;-70
2022/04/26 07:25:18;;;;;;;;;;;11.40;81.90;;;;;;5073492;28;19913;-70
2022/04/26 07:27:44;;;;;;;;;;;11.40;81.80;;;;;;5078510;28;20552;-70
2022/04/26 07:30:10;;;;;;;;;;;11.40;81.70;;;;;;5082559;28;19957;-71
2022/04/26 07:35:20;;;;;;;;;;;11.50;81.50;;;;;;5080373;28;19969;-70
2022/04/26 07:37:45;;;;;;;;;;;11.50;81.40;;;;;;5076566;28;20299;-70
2022/04/26 07:40:11;;;;;;;;;;;11.50;81.40;;;;;;5080031;28;19919;-70
2022/04/26 07:42:36;;;;;;;;;;;11.60;81.40;;;;;;5079560;28;20020;-70
2022/04/26 07:45:02;;;;;;;;;;;11.60;81.30;;;;;;5077059;28;19986;-70
2022/04/26 07:47:29;;;;;;;;;;;11.60;81.20;;;;;;5082064;28;19913;-70
2022/04/26 07:49:54;;;;;;;;;;;11.70;81.30;;;;;;5082425;27;19920;-70
2022/04/26 07:52:20;;;;;;;;;;;11.70;81.30;;;;;;5073247;28;19925;-70
2022/04/26 07:54:46;;;;;;;;;;;11.70;81.30;;;;;;5085185;28;20004;-70
2022/04/26 07:57:12;;;;;;;;;;;11.70;81.30;;;;;;5074330;28;20007;-70
2022/04/26 07:59:38;;;;;;;;;;;11.80;81.30;;;;;;5074540;28;19973;-70
2022/04/26 08:02:06;;;;;;;;;;;11.70;81.40;;;;;;5073799;28;19918;-70
2022/04/26 08:04:31;;;;;;;;;;;11.80;81.30;;;;;;5081593;28;20467;-70
2022/04/26 08:06:57;;;;;;;;;;;11.80;81.30;;;;;;5072055;28;19908;-70
2022/04/26 08:09:22;;;;;;;;;;;11.80;81.30;;;;;;5077176;28;19919;-70
2022/04/26 08:11:49;;;;;;;;;;;11.80;81.30;;;;;;5080619;28;20101;-70
2022/04/26 08:14:15;;;;;;;;;;;11.80;81.40;;;;;;5081628;28;19955;-70
2022/04/26 08:16:40;;;;;;;;;;;11.80;81.40;;;;;;5078456;28;19993;-70
2022/04/26 08:19:08;;;;;;;;;;;11.80;81.50;;;;;;5075924;28;20140;-70
2022/04/26 08:21:34;;;;;;;;;;;11.80;81.50;;;;;;5082235;28;19920;-71
2022/04/26 08:29:28;;;;;;;;;;;11.80;81.40;;;;;;5080716;28;20337;-70
2022/04/26 08:31:55;;;;;;;;;;;11.90;81.30;;;;;;5076149;28;20002;-70
2022/04/26 08:34:21;;;;;;;;;;;11.90;81.10;;;;;;5076351;28;19920;-70
2022/04/26 08:36:47;;;;;;;;;;;12.00;81.10;;;;;;5078647;28;19912;-70
2022/04/26 08:39:12;;;;;;;;;;;12.00;81.00;;;;;;5080610;28;19916;-70
2022/04/26 08:41:38;;;;;;;;;;;12.10;81.00;;;;;;5102779;27;20611;-70
2022/04/26 08:44:07;;;;;;;;;;;12.10;80.90;;;;;;5071217;28;19956;-70
2022/04/26 08:52:06;;;;;;;;;;;12.10;80.80;;;;;;5093296;28;20348;-69
2022/04/26 08:54:31;;;;;;;;;;;12.10;80.80;;;;;;5081276;28;19919;-70
2022/04/26 08:56:57;;;;;;;;;;;12.10;80.90;;;;;;5090462;28;20248;-70
2022/04/26 08:59:22;;;;;;;;;;;12.10;80.80;;;;;;5071454;28;19908;-70
2022/04/26 09:01:48;;;;;;;;;;;12.20;80.80;;;;;;5084598;28;19989;-70
2022/04/26 09:04:15;;;;;;;;;;;12.20;80.80;;;;;;5083923;28;20325;-70
2022/04/26 09:06:41;;;;;;;;;;;12.20;80.70;;;;;;5088227;28;20400;-71
2022/04/26 09:09:07;;;;;;;;;;;12.30;80.80;;;;;;5080734;28;19923;-70
2022/04/26 09:11:34;;;;;;;;;;;12.30;80.60;;;;;;5084197;28;20367;-70
2022/04/26 09:14:01;;;;;;;;;;;12.40;80.60;;;;;;5081836;28;19927;-70
2022/04/26 09:16:26;;;;;;;;;;;12.40;80.60;;;;;;5082708;28;20567;-70
2022/04/26 09:18:59;;;;;;;;;;;12.50;80.50;;;;;;5079437;28;19916;-70
2022/04/26 09:21:28;;;;;;;;;;;12.50;80.30;;;;;;5088471;28;20288;-70
2022/04/26 09:24:01;;;;;;;;;;;12.60;80.20;;;;;;5081434;28;19973;-70
2022/04/26 09:26:33;;;;;;;;;;;12.70;80.20;;;;;;5077205;28;20341;-70
2022/04/26 09:28:59;;;;;;;;;;;12.80;79.90;;;;;;5084903;28;19984;-70
2022/04/26 09:31:26;;;;;;;;;;;12.80;80.00;;;;;;5080797;28;20360;-70
2022/04/26 09:33:53;;;;;;;;;;;12.80;79.80;;;;;;5085967;28;20215;-70
2022/04/26 09:36:19;;;;;;;;;;;12.90;79.80;;;;;;5081549;28;19924;-70
2022/04/26 09:38:53;;;;;;;;;;;12.90;80.00;;;;;;5082240;28;20425;-70
2022/04/26 09:41:18;;;;;;;;;;;12.90;79.80;;;;;;5081288;28;19947;-70
2022/04/26 09:43:44;;;;;;;;;;;13.10;79.70;;;;;;5117717;27;20399;-70
2022/04/26 09:46:09;;;;;;;;;;;13.20;79.30;;;;;;5084119;28;19959;-70
2022/04/26 09:48:36;;;;;;;;;;;13.30;78.80;;;;;;5081253;28;19952;-70
2022/04/26 09:51:08;;;;;;;;;;;13.50;78.30;;;;;;5085135;28;19915;-69
2022/04/26 09:53:33;;;;;;;;;;;13.60;77.90;;;;;;5087442;28;20284;-70
2022/04/26 09:56:00;;;;;;;;;;;13.60;77.50;;;;;;5081823;28;19912;-71
2022/04/26 09:58:27;;;;;;;;;;;13.60;77.40;;;;;;5085513;28;19940;-69
2022/04/26 10:00:54;;;;;;;;;;;13.70;77.50;;;;;;5075899;28;19931;-69
2022/04/26 10:03:23;;;;;;;;;;;13.70;78.10;;;;;;5079959;28;20766;-70
2022/04/26 10:05:49;;;;;;;;;;;13.70;77.90;;;;;;5086644;28;20498;-69
2022/04/26 10:08:16;;;;;;;;;;;13.70;77.70;;;;;;5085946;28;20053;-69
2022/04/26 10:10:43;;;;;;;;;;;13.80;77.80;;;;;;5081429;28;19914;-69
2022/04/26 10:15:54;;;;;;;;;;;13.80;78.00;;;;;;5072606;28;19997;-70
2022/04/26 10:18:26;;;;;;;;;;;13.80;78.00;;;;;;5075708;28;20002;-69
2022/04/26 10:20:51;;;;;;;;;;;13.80;77.90;;;;;;5083058;28;19948;-69
2022/04/26 10:23:17;;;;;;;;;;;13.80;77.90;;;;;;5083368;28;20426;-70
2022/04/26 10:26:02;;;;;;;;;;;13.80;78.00;;;;;;5084139;28;19916;-69
2022/04/26 10:28:28;;;;;;;;;;;13.80;77.90;;;;;;5078750;28;19912;-69
2022/04/26 10:30:55;;;;;;;;;;;13.90;78.20;;;;;;5087833;28;19916;-69
2022/04/26 10:33:43;;;;;;;;;;;13.90;78.20;;;;;;5079656;28;19948;-69
2022/04/26 10:36:20;;;;;;;;;;;14.00;78.20;;;;;;5079771;28;20305;-69
2022/04/26 10:39:04;;;;;;;;;;;14.00;77.90;;;;;;5083097;28;19964;-69
2022/04/26 10:41:34;;;;;;;;;;;14.00;77.90;;;;;;5079460;28;19916;-69
2022/04/26 10:44:21;;;;;;;;;;;14.00;77.90;;;;;;5072862;28;19917;-69
2022/04/26 10:46:51;;;;;;;;;;;14.00;77.90;;;;;;5082970;28;19912;-69
2022/04/26 10:49:25;;;;;;;;;;;14.10;77.60;;;;;;5084335;28;19928;-69
2022/04/26 10:51:57;;;;;;;;;;;14.20;77.20;;;;;;5094613;28;20045;-69
2022/04/26 10:54:41;;;;;;;;;;;14.30;77.50;;;;;;5077519;28;19920;-69
2022/04/26 10:57:06;;;;;;;;;;;14.30;77.10;;;;;;5083623;28;19999;-69
2022/04/26 10:59:32;;;;;;;;;;;14.40;77.00;;;;;;5079919;28;19990;-69
2022/04/26 11:01:58;;;;;;;;;;;14.40;76.80;;;;;;5076170;28;20298;-69
2022/04/26 11:04:23;;;;;;;;;;;14.50;76.50;;;;;;5079461;28;19916;-69
2022/04/26 11:06:49;;;;;;;;;;;14.50;76.50;;;;;;5091948;28;20000;-70
2022/04/26 11:09:15;;;;;;;;;;;14.60;76.50;;;;;;5073546;28;19912;-69
2022/04/26 11:11:51;;;;;;;;;;;14.70;76.30;;;;;;5085283;28;19998;-70
2022/04/26 11:14:20;;;;;;;;;;;14.70;76.20;;;;;;5078576;28;20495;-69
2022/04/26 11:16:59;;;;;;;;;;;14.80;76.00;;;;;;5079656;28;19963;-69
2022/04/26 11:19:29;;;;;;;;;;;14.90;75.80;;;;;;5076257;28;20682;-69
2022/04/26 11:21:55;;;;;;;;;;;14.90;75.50;;;;;;5082374;28;19916;-69
2022/04/26 11:29:52;;;;;;;;;;;15.20;75.30;;;;;;5077613;28;20030;-69
2022/04/26 11:32:44;;;;;;;;;;;15.40;74.60;;;;;;5084278;28;20331;-69
2022/04/26 11:35:19;;;;;;;;;;;15.40;74.40;;;;;;5104043;27;19916;-69
2022/04/26 11:37:49;;;;;;;;;;;15.60;74.00;;;;;;5087981;28;20284;-69
2022/04/26 11:40:28;;;;;;;;;;;15.60;73.50;;;;;;5078399;28;19916;-69
2022/04/26 11:42:56;;;;;;;;;;;15.80;73.40;;;;;;5081982;28;19920;-69
2022/04/26 11:45:28;;;;;;;;;;;15.90;72.80;;;;;;5072998;28;20276;-69
2022/04/26 11:47:54;;;;;;;;;;;16.00;72.60;;;;;;5082505;28;19933;-69
2022/04/26 11:50:20;;;;;;;;;;;16.20;72.70;;;;;;5086919;28;19923;-69
2022/04/26 11:52:46;;;;;;;;;;;16.20;71.80;;;;;;5083116;28;20011;-69
2022/04/26 11:55:38;;;;;;;;;;;16.20;72.70;;;;;;5076839;28;20010;-69
2022/04/26 11:58:08;;;;;;;;;;;16.10;72.40;;;;;;5077127;28;19948;-69
2022/04/26 12:00:34;;;;;;;;;;;16.10;72.80;;;;;;5072582;28;20128;-69
2022/04/26 12:03:02;;;;;;;;;;;16.10;73.20;;;;;;5075807;28;20326;-70
2022/04/26 12:05:28;;;;;;;;;;;16.00;73.30;;;;;;5082092;28;19916;-70
2022/04/26 12:07:53;;;;;;;;;;;16.00;73.50;;;;;;5076581;28;19916;-70
2022/04/26 12:10:26;;;;;;;;;;;16.00;73.60;;;;;;5077965;28;19995;-70
2022/04/26 12:12:58;;;;;;;;;;;16.00;74.00;;;;;;5076652;28;19916;-70
2022/04/26 12:15:28;;;;;;;;;;;16.00;73.80;;;;;;5089025;28;19916;-70
2022/04/26 12:18:02;;;;;;;;;;;16.10;73.20;;;;;;5076130;28;19917;-70
2022/04/26 12:20:28;;;;;;;;;;;16.10;73.10;;;;;;5084857;28;19916;-69
2022/04/26 12:22:54;;;;;;;;;;;16.10;73.50;;;;;;5076982;28;19965;-70
2022/04/26 12:25:19;;;;;;;;;;;16.30;72.80;;;;;;5079012;28;19912;-69
2022/04/26 12:27:45;;;;;;;;;;;16.40;72.40;;;;;;5072616;28;20573;-69
2022/04/26 12:30:11;;;;;;;;;;;16.50;71.90;;;;;;5077251;28;20571;-69
2022/04/26 12:32:40;;;;;;;;;;;16.60;71.70;;;;;;5078674;28;19951;-69
2022/04/26 12:35:09;;;;;;;;;;;16.70;71.70;;;;;;5085333;28;19916;-69
2022/04/26 12:37:34;;;;;;;;;;;16.70;71.60;;;;;;5076453;28;19908;-70
2022/04/26 12:40:10;;;;;;;;;;;16.70;72.10;;;;;;5082197;28;19916;-70
2022/04/26 12:42:38;;;;;;;;;;;16.60;72.30;;;;;;5080816;28;19933;-69
2022/04/26 12:45:10;;;;;;;;;;;16.60;72.70;;;;;;5079058;28;19924;-71
2022/04/26 12:50:33;;;;;;;;;;;16.50;73.00;;;;;;5084838;28;19976;-70
2022/04/26 12:53:06;;;;;;;;;;;16.50;73.40;;;;;;5082163;28;19991;-70
2022/04/26 12:55:34;;;;;;;;;;;16.50;73.40;;;;;;5079165;28;19920;-70
2022/04/26 12:58:01;;;;;;;;;;;16.40;73.40;;;;;;5078299;28;19912;-70
2022/04/26 13:00:28;;;;;;;;;;;16.50;73.40;;;;;;5087775;28;19916;-70
2022/04/26 13:02:55;;;;;;;;;;;16.40;73.50;;;;;;5105593;27;19920;-70
2022/04/26 13:05:21;;;;;;;;;;;16.40;73.70;;;;;;5081727;28;19923;-70
2022/04/26 13:07:47;;;;;;;;;;;16.30;73.80;;;;;;5080105;28;20056;-70
2022/04/26 13:10:16;;;;;;;;;;;16.30;73.90;;;;;;5077504;28;19947;-70
2022/04/26 13:12:42;;;;;;;;;;;16.30;74.00;;;;;;5076787;28;19912;-70
2022/04/26 13:15:08;;;;;;;;;;;16.20;74.20;;;;;;5077321;28;19930;-70
2022/04/26 13:17:40;;;;;;;;;;;16.20;74.30;;;;;;5079061;28;19933;-70
2022/04/26 13:20:06;;;;;;;;;;;16.10;74.50;;;;;;5076504;28;19924;-70
2022/04/26 13:22:35;;;;;;;;;;;16.10;74.70;;;;;;5073121;28;19913;-70
2022/04/26 13:25:03;;;;;;;;;;;16.10;74.70;;;;;;5077163;28;19993;-70
2022/04/26 13:27:32;;;;;;;;;;;16.10;74.60;;;;;;5083570;28;19912;-70
2022/04/26 13:29:58;;;;;;;;;;;16.10;74.50;;;;;;5070194;28;19920;-70
2022/04/26 13:32:23;;;;;;;;;;;16.10;74.50;;;;;;5080776;28;20356;-70
2022/04/26 13:34:50;;;;;;;;;;;16.00;74.50;;;;;;5077167;28;19924;-70
2022/04/26 13:37:17;;;;;;;;;;;16.00;74.60;;;;;;5079802;28;19919;-70
2022/04/26 13:39:45;;;;;;;;;;;16.00;74.70;;;;;;5080165;28;20298;-71
2022/04/26 13:42:11;;;;;;;;;;;16.00;74.90;;;;;;5082127;28;19916;-70
2022/04/26 13:44:37;;;;;;;;;;;15.90;75.00;;;;;;5075436;28;19920;-70
2022/04/26 13:47:04;;;;;;;;;;;15.90;75.20;;;;;;5086026;28;20504;-70
2022/04/26 13:49:31;;;;;;;;;;;15.80;75.30;;;;;;5078831;28;19983;-70
2022/04/26 13:51:57;;;;;;;;;;;15.80;75.50;;;;;;5088960;28;20348;-70
2022/04/26 13:54:23;;;;;;;;;;;15.70;75.80;;;;;;5078845;28;19935;-70
2022/04/26 13:56:49;;;;;;;;;;;15.70;76.00;;;;;;5079391;28;19912;-70
2022/04/26 13:59:15;;;;;;;;;;;15.60;76.00;;;;;;5084974;28;19976;-70
2022/04/26 14:01:41;;;;;;;;;;;15.60;76.30;;;;;;5077563;28;19915;-70
2022/04/26 14:04:06;;;;;;;;;;;15.50;76.40;;;;;;5074122;28;19916;-70
2022/04/26 14:06:32;;;;;;;;;;;15.50;77.20;;;;;;5081370;28;20353;-70
2022/04/26 14:08:57;;;;;;;;;;;15.50;76.60;;;;;;5080629;28;19995;-70
2022/04/26 14:11:24;;;;;;;;;;;15.40;76.80;;;;;;5076133;28;19980;-71
2022/04/26 14:22:02;;;;;;;;;;;15.30;77.30;;;;;;5074992;28;20385;-70
2022/04/26 14:24:28;;;;;;;;;;;15.30;77.00;;;;;;5086722;28;19990;-70
2022/04/26 14:26:53;;;;;;;;;;;15.30;77.10;;;;;;5079460;28;19908;-70
2022/04/26 14:29:19;;;;;;;;;;;15.20;77.00;;;;;;5078424;28;19912;-70
2022/04/26 14:31:44;;;;;;;;;;;15.20;77.30;;;;;;5073948;28;19919;-70
2022/04/26 14:34:11;;;;;;;;;;;15.20;77.20;;;;;;5077869;28;20010;-70
2022/04/26 14:36:37;;;;;;;;;;;15.20;77.60;;;;;;5077305;28;20400;-70
2022/04/26 14:39:03;;;;;;;;;;;15.20;77.70;;;;;;5079249;28;19934;-70
2022/04/26 14:41:28;;;;;;;;;;;15.20;78.10;;;;;;5080192;28;19908;-70
2022/04/26 14:43:53;;;;;;;;;;;15.10;78.10;;;;;;5081119;28;19963;-71
2022/04/26 14:46:19;;;;;;;;;;;15.10;78.30;;;;;;5081678;28;20316;-70
2022/04/26 14:48:45;;;;;;;;;;;15.10;78.20;;;;;;5079997;28;20012;-71
2022/04/26 14:51:11;;;;;;;;;;;15.10;78.00;;;;;;5077837;28;19923;-70
2022/04/26 14:53:36;;;;;;;;;;;15.10;78.60;;;;;;5081088;28;19920;-70
2022/04/26 14:56:02;;;;;;;;;;;15.00;78.70;;;;;;5082892;28;20622;-71
2022/04/26 14:58:29;;;;;;;;;;;15.00;78.70;;;;;;5076602;28;19919;-70
2022/04/26 15:00:54;;;;;;;;;;;15.00;78.90;;;;;;5085069;28;19907;-70
2022/04/26 15:03:20;;;;;;;;;;;15.00;78.90;;;;;;5072783;28;19943;-70
2022/04/26 15:05:46;;;;;;;;;;;15.00;78.90;;;;;;5083783;28;20000;-70
2022/04/26 15:10:55;;;;;;;;;;;15.00;78.50;;;;;;5080122;28;19997;-70
2022/04/26 15:18:49;;;;;;;;;;;14.90;79.00;;;;;;5080925;28;19951;-70
2022/04/26 15:21:15;;;;;;;;;;;14.90;79.40;;;;;;5082299;28;19916;-70
2022/04/26 15:23:40;;;;;;;;;;;14.90;79.50;;;;;;5078028;28;19916;-70
2022/04/26 15:26:06;;;;;;;;;;;14.90;79.80;;;;;;5078688;28;19920;-70
2022/04/26 15:28:32;;;;;;;;;;;14.80;79.80;;;;;;5079070;28;19909;-70
2022/04/26 15:30:57;;;;;;;;;;;14.80;80.10;;;;;;5078851;28;19919;-71
2022/04/26 15:33:23;;;;;;;;;;;14.80;79.80;;;;;;5079214;28;20387;-70
2022/04/26 15:35:51;;;;;;;;;;;14.80;78.70;;;;;;5083576;28;19916;-70
2022/04/26 15:38:17;;;;;;;;;;;14.70;78.10;;;;;;5078857;28;20230;-70
2022/04/26 15:40:44;;;;;;;;;;;14.70;78.00;;;;;;5080567;28;19927;-70
2022/04/26 15:43:10;;;;;;;;;;;14.70;78.10;;;;;;5081108;28;19935;-70
2022/04/26 15:45:36;;;;;;;;;;;14.70;78.30;;;;;;5083555;28;19915;-70
2022/04/26 15:48:02;;;;;;;;;;;14.60;78.10;;;;;;5083590;28;19947;-70
2022/04/26 15:50:28;;;;;;;;;;;14.60;78.20;;;;;;5075671;28;19952;-70
2022/04/26 15:52:53;;;;;;;;;;;14.50;78.00;;;;;;5088571;28;20417;-70
2022/04/26 15:55:20;;;;;;;;;;;14.50;78.10;;;;;;5072962;28;20003;-70
2022/04/26 15:57:47;;;;;;;;;;;14.50;78.40;;;;;;5080293;28;19912;-70
2022/04/26 16:00:13;;;;;;;;;;;14.50;78.50;;;;;;5076958;28;19919;-70
2022/04/26 16:02:40;;;;;;;;;;;14.50;78.90;;;;;;5078839;28;20368;-70
2022/04/26 16:05:06;;;;;;;;;;;14.40;78.50;;;;;;5074244;28;19927;-71
2022/04/26 16:07:31;;;;;;;;;;;14.40;78.50;;;;;;5077749;28;19919;-70
2022/04/26 16:20:53;;;;;;;;;;;14.30;78.20;;;;;;5078221;28;20273;-70
2022/04/26 16:23:19;;;;;;;;;;;14.30;78.30;;;;;;5080087;28;19920;-70
2022/04/26 16:25:45;;;;;;;;;;;14.30;78.50;;;;;;5075862;28;19913;-70
2022/04/26 16:28:11;;;;;;;;;;;14.20;78.50;;;;;;5083617;28;19913;-70
2022/04/26 16:30:38;;;;;;;;;;;14.20;78.30;;;;;;5075384;28;19923;-70
2022/04/26 16:33:06;;;;;;;;;;;14.20;78.40;;;;;;5075374;28;19912;-70
2022/04/26 16:35:32;;;;;;;;;;;14.20;78.50;;;;;;5084410;28;19924;-70
2022/04/26 16:37:58;;;;;;;;;;;14.20;78.40;;;;;;5079319;28;20582;-70
2022/04/26 16:40:24;;;;;;;;;;;14.10;78.50;;;;;;5078907;28;19915;-70
2022/04/26 16:42:50;;;;;;;;;;;14.10;78.70;;;;;;5080598;28;19939;-70
2022/04/26 16:45:15;;;;;;;;;;;14.10;78.30;;;;;;5081216;28;19989;-70
2022/04/26 16:47:41;;;;;;;;;;;14.10;78.30;;;;;;5082920;28;19916;-70
2022/04/26 16:50:07;;;;;;;;;;;14.10;78.60;;;;;;5084514;28;19920;-70
2022/04/26 16:52:33;;;;;;;;;;;14.10;78.60;;;;;;5076616;28;23001;-70
2022/04/26 16:54:58;;;;;;;;;;;14.10;78.50;;;;;;5082662;28;19922;-71
2022/04/26 16:57:26;;;;;;;;;;;14.00;78.80;;;;;;5077262;28;20445;-70
2022/04/26 16:59:52;;;;;;;;;;;14.00;79.10;;;;;;5083361;28;19974;-70
2022/04/26 17:02:17;;;;;;;;;;;14.00;79.30;;;;;;5084025;28;19908;-70
2022/04/26 17:04:43;;;;;;;;;;;14.00;79.30;;;;;;5078488;28;19912;-70
2022/04/26 17:07:08;;;;;;;;;;;14.00;79.40;;;;;;5075849;28;19920;-70
2022/04/26 17:09:36;;;;;;;;;;;14.00;79.40;;;;;;5085678;28;20511;-70
2022/04/26 17:12:02;;;;;;;;;;;14.00;79.30;;;;;;5084067;28;19916;-70
2022/04/26 17:14:27;;;;;;;;;;;14.00;79.40;;;;;;5077112;28;19998;-70
2022/04/26 17:16:53;;;;;;;;;;;14.00;79.10;;;;;;5081709;28;20369;-70
2022/04/26 17:19:18;;;;;;;;;;;14.00;79.50;;;;;;5084374;28;19977;-70
2022/04/26 17:21:46;;;;;;;;;;;14.00;79.30;;;;;;5079468;28;19912;-70
2022/04/26 17:26:57;;;;;;;;;;;14.00;79.70;;;;;;5084607;28;20129;-70
2022/04/26 17:29:22;;;;;;;;;;;14.00;79.80;;;;;;5085650;28;20418;-70
2022/04/26 17:31:48;;;;;;;;;;;13.90;79.90;;;;;;5073018;28;19913;-70
2022/04/26 17:34:14;;;;;;;;;;;13.90;80.00;;;;;;5077135;28;20446;-70
2022/04/26 17:36:42;;;;;;;;;;;13.90;80.00;;;;;;5088700;28;19973;-70
2022/04/26 17:39:08;;;;;;;;;;;13.90;80.00;;;;;;5080451;28;19912;-70
2022/04/26 17:41:33;;;;;;;;;;;13.90;80.00;;;;;;5087550;28;19916;-70
2022/04/26 17:43:59;;;;;;;;;;;13.90;80.40;;;;;;5081158;28;19908;-70
2022/04/26 17:46:24;;;;;;;;;;;13.90;80.10;;;;;;5091618;28;20002;-70
2022/04/26 17:48:52;;;;;;;;;;;13.90;80.30;;;;;;5076584;28;19916;-70
2022/04/26 17:51:17;;;;;;;;;;;13.90;80.40;;;;;;5081047;28;19939;-70
2022/04/26 17:56:30;;;;;;;;;;;13.90;80.50;;;;;;5081922;28;20380;-70
2022/04/26 17:58:56;;;;;;;;;;;13.90;80.70;;;;;;5076865;28;20368;-70
2022/04/26 18:01:21;;;;;;;;;;;13.90;80.70;;;;;;5085783;28;19912;-70
2022/04/26 18:03:48;;;;;;;;;;;13.90;80.80;;;;;;5085447;28;19912;-70
2022/04/26 18:06:13;;;;;;;;;;;13.80;80.70;;;;;;5075264;28;19917;-70
2022/04/26 18:08:39;;;;;;;;;;;13.90;80.50;;;;;;5083193;28;19909;-70
2022/04/26 18:11:05;;;;;;;;;;;13.80;80.40;;;;;;5080971;28;19916;-70
2022/04/26 18:13:31;;;;;;;;;;;13.80;80.40;;;;;;5093202;28;20094;-70
2022/04/26 18:15:57;;;;;;;;;;;13.80;80.40;;;;;;5078691;28;19924;-70
2022/04/26 18:18:26;;;;;;;;;;;13.80;80.30;;;;;;5088375;28;20610;-70
2022/04/26 18:20:53;;;;;;;;;;;13.70;80.30;;;;;;5112008;27;19915;-70
2022/04/26 18:23:19;;;;;;;;;;;13.70;80.20;;;;;;5082407;28;19908;-70
2022/04/26 18:28:29;;;;;;;;;;;13.70;80.30;;;;;;5093008;28;19968;-70
2022/04/26 18:30:54;;;;;;;;;;;13.70;80.40;;;;;;5075171;28;19920;-71
2022/04/26 18:33:20;;;;;;;;;;;13.70;80.40;;;;;;5084850;28;20534;-70
2022/04/26 18:35:45;;;;;;;;;;;13.60;80.30;;;;;;5078483;28;19920;-70
2022/04/26 18:38:12;;;;;;;;;;;13.60;80.30;;;;;;5080610;28;19922;-70
2022/04/26 18:40:38;;;;;;;;;;;13.60;80.30;;;;;;5072238;28;20328;-70
2022/04/26 18:43:03;;;;;;;;;;;13.60;80.40;;;;;;5076701;28;19919;-70
2022/04/26 18:45:29;;;;;;;;;;;13.50;80.30;;;;;;5086004;28;19922;-70
2022/04/26 18:47:54;;;;;;;;;;;13.50;80.30;;;;;;5079591;28;19916;-69
2022/04/26 18:50:20;;;;;;;;;;;13.50;80.30;;;;;;5086078;28;20027;-70
2022/04/26 18:52:45;;;;;;;;;;;13.50;80.50;;;;;;5078137;28;19916;-70